Time;durP1;ratioP1;P1;durP2;ratioP2;P2;SDS_P1;SDS_P2;PMS_P1;PMS_P2;Temp;Humidity;BMP_temperature;BMP_pressure;BME280_temperature;BME280_humidity;BME280_pressure;Samples;Min_cycle;Max_cycle;Signal;HPM_P1;HPM_P2
2021/07/02 09:55:18;;;;;;;4.13;2.38;;;26.90;93.90;;;;;;3919616;22;20339;-72
2021/07/02 09:57:45;;;;;;;6.43;2.63;;;26.70;93.30;;;;;;4991109;28;20214;-77
2021/07/02 10:00:13;;;;;;;5.13;2.33;;;26.80;94.00;;;;;;4994386;28;20212;-77
2021/07/02 10:02:40;;;;;;;3.75;2.28;;;27.10;93.50;;;;;;4993552;28;20226;-75
2021/07/02 10:05:08;;;;;;;2.75;1.80;;;27.50;93.50;;;;;;4994386;28;20207;-78
2021/07/02 10:07:34;;;;;;;3.67;2.10;;;27.80;93.30;;;;;;4994260;28;20234;-75
2021/07/02 10:10:02;;;;;;;3.65;2.00;;;28.00;92.30;;;;;;4993715;28;20206;-79
2021/07/02 10:12:30;;;;;;;3.70;2.17;;;27.90;91.60;;;;;;4994184;28;20253;-76
2021/07/02 10:14:58;;;;;;;8.43;2.60;;;27.70;92.60;;;;;;4994295;28;20213;-77
2021/07/02 10:17:28;;;;;;;4.10;2.38;;;27.40;93.60;;;;;;4994020;28;20214;-79
2021/07/02 10:19:56;;;;;;;5.00;2.33;;;27.10;93.00;;;;;;4994540;28;20210;-78
2021/07/02 10:22:25;;;;;;;3.92;2.45;;;26.80;94.00;;;;;;4994118;28;20226;-81
2021/07/02 10:24:53;;;;;;;3.28;2.25;;;26.30;94.80;;;;;;4993508;28;20691;-78
2021/07/02 10:27:21;;;;;;;6.05;2.40;;;25.60;95.40;;;;;;4993226;28;20237;-73
2021/07/02 10:29:49;;;;;;;6.60;2.20;;;25.60;95.90;;;;;;4993925;28;20211;-75
2021/07/02 10:32:19;;;;;;;4.97;2.30;;;25.50;95.30;;;;;;4994553;28;20689;-73
2021/07/02 10:34:47;;;;;;;3.78;2.47;;;25.40;95.90;;;;;;4995277;28;20213;-75
2021/07/02 10:37:13;;;;;;;4.85;2.80;;;25.50;95.50;;;;;;4995367;28;20210;-74
2021/07/02 10:39:44;;;;;;;4.47;2.30;;;25.50;95.20;;;;;;4995258;28;20229;-78
2021/07/02 10:42:13;;;;;;;5.68;2.53;;;25.40;96.20;;;;;;4994906;28;20264;-78
2021/07/02 10:45:09;;;;;;;6.05;2.53;;;25.40;96.40;;;;;;4994896;28;20727;-77
2021/07/02 10:47:51;;;;;;;4.13;2.50;;;25.40;95.40;;;;;;4988224;28;20238;-77
2021/07/02 10:50:38;;;;;;;3.65;2.40;;;25.30;95.90;;;;;;4994884;28;20214;-79
2021/07/02 10:53:25;;;;;;;6.68;2.10;;;25.30;96.20;;;;;;4995115;28;20568;-77
2021/07/02 10:55:52;;;;;;;4.88;2.60;;;25.40;97.00;;;;;;4994845;28;20237;-72
2021/07/02 10:58:20;;;;;;;3.80;2.38;;;25.50;96.50;;;;;;4994343;28;20213;-76
2021/07/02 11:01:11;;;;;;;5.28;2.40;;;25.30;96.70;;;;;;4994875;28;20207;-74
2021/07/02 11:03:38;;;;;;;7.50;3.45;;;25.60;97.60;;;;;;4994623;28;20226;-77
2021/07/02 11:06:40;;;;;;;14.95;3.90;;;25.80;95.40;;;;;;4994849;28;20297;-78
2021/07/02 11:09:08;;;;;;;7.22;2.65;;;26.00;96.90;;;;;;4994536;28;20210;-79
2021/07/02 11:12:04;;;;;;;5.80;3.17;;;26.00;97.00;;;;;;4994382;28;20245;-78
2021/07/02 11:14:31;;;;;;;4.45;2.92;;;25.80;95.60;;;;;;4994565;28;20211;-73
2021/07/02 11:17:22;;;;;;;3.78;2.50;;;25.70;94.90;;;;;;4994074;28;20686;-77
2021/07/02 11:20:09;;;;;;;6.22;2.78;;;25.50;95.80;;;;;;4994553;28;20289;-78
2021/07/02 11:22:38;;;;;;;3.90;2.53;;;25.60;95.60;;;;;;4993863;28;20729;-72
2021/07/02 11:25:07;;;;;;;6.22;3.00;;;25.60;97.70;;;;;;4994351;28;20217;-73
2021/07/02 11:27:39;;;;;;;3.90;2.30;;;25.40;96.50;;;;;;4994119;28;20238;-73
2021/07/02 11:30:09;;;;;;;4.90;2.50;;;25.40;95.80;;;;;;4994303;28;20558;-72
2021/07/02 11:32:37;;;;;;;5.13;2.55;;;25.30;96.60;;;;;;4993964;28;20226;-72
2021/07/02 11:35:18;;;;;;;5.47;2.70;;;25.50;96.00;;;;;;4994410;28;20206;-73
2021/07/02 11:38:02;;;;;;;4.03;2.63;;;25.40;96.60;;;;;;4994185;28;20216;-72
2021/07/02 11:40:30;;;;;;;4.40;2.20;;;25.50;95.00;;;;;;4994129;28;20213;-74
2021/07/02 11:42:58;;;;;;;5.13;2.38;;;25.40;95.30;;;;;;4993813;28;20226;-72
2021/07/02 11:45:40;;;;;;;5.55;2.47;;;25.10;95.80;;;;;;4993853;28;20653;-76
2021/07/02 11:48:10;;;;;;;5.10;2.70;;;24.60;96.60;;;;;;4994008;28;20242;-74
2021/07/02 11:50:41;;;;;;;3.97;2.63;;;24.50;97.80;;;;;;4994538;28;20351;-76
2021/07/02 11:53:09;;;;;;;4.85;2.67;;;24.50;97.50;;;;;;4994125;28;20596;-73
2021/07/02 11:55:35;;;;;;;4.97;2.67;;;24.50;97.00;;;;;;4993762;28;20656;-73
2021/07/02 11:58:16;;;;;;;6.05;2.33;;;24.70;96.70;;;;;;4993932;28;20206;-76
2021/07/02 12:00:43;;;;;;;7.10;2.75;;;24.90;97.50;;;;;;4993843;28;20257;-77
2021/07/02 12:03:11;;;;;;;6.63;2.95;;;25.20;97.90;;;;;;4993169;28;20226;-73
2021/07/02 12:05:38;;;;;;;4.47;2.40;;;25.50;96.40;;;;;;4993799;28;20202;-75
2021/07/02 12:08:05;;;;;;;5.30;2.35;;;25.60;95.20;;;;;;4993411;28;20238;-72
2021/07/02 12:10:31;;;;;;;5.65;2.65;;;25.40;94.90;;;;;;4993654;28;20210;-71
2021/07/02 12:13:07;;;;;;;4.35;2.08;;;25.10;95.10;;;;;;4993368;28;20230;-73
2021/07/02 12:15:36;;;;;;;6.22;3.25;;;25.00;95.70;;;;;;4993610;28;20209;-74
2021/07/02 12:18:05;;;;;;;5.68;2.72;;;25.00;95.90;;;;;;4993390;28;20221;-72
2021/07/02 12:20:34;;;;;;;5.20;2.80;;;24.90;94.60;;;;;;4977999;28;20646;-72
2021/07/02 12:23:07;;;;;;;7.35;2.97;;;24.90;94.70;;;;;;4974153;28;20314;-73
2021/07/02 12:25:34;;;;;;;4.63;2.80;;;24.80;95.50;;;;;;4982863;28;20202;-73
2021/07/02 12:28:01;;;;;;;5.75;2.50;;;24.80;95.60;;;;;;4992339;28;20708;-71
2021/07/02 12:30:28;;;;;;;4.85;2.67;;;24.90;96.80;;;;;;4988869;28;20203;-71
2021/07/02 12:32:56;;;;;;;4.30;2.50;;;24.80;95.50;;;;;;4975302;28;20227;-72
2021/07/02 12:35:23;;;;;;;4.35;2.28;;;24.90;94.90;;;;;;4990776;28;20606;-72
2021/07/02 12:37:51;;;;;;;4.22;2.60;;;24.70;96.60;;;;;;4986034;28;20654;-72
2021/07/02 12:40:18;;;;;;;6.72;2.78;;;24.70;96.60;;;;;;4974099;28;20211;-72
2021/07/02 12:42:46;;;;;;;3.15;2.60;;;24.90;97.00;;;;;;4974939;28;20725;-72
2021/07/02 12:45:15;;;;;;;6.40;3.10;;;25.10;97.00;;;;;;4985249;28;20211;-73
2021/07/02 12:47:43;;;;;;;4.18;2.60;;;25.20;95.30;;;;;;4992788;28;20820;-72
2021/07/02 12:50:13;;;;;;;8.05;3.47;;;25.30;96.00;;;;;;4993186;28;20203;-72
2021/07/02 12:55:28;;;;;;;4.15;2.40;;;25.40;95.60;;;;;;4991470;28;20198;-72
2021/07/02 12:57:56;;;;;;;4.28;2.70;;;25.50;95.60;;;;;;4992949;28;20216;-72
2021/07/02 13:00:41;;;;;;;8.73;3.10;;;25.50;95.40;;;;;;4978943;28;20206;-72
2021/07/02 13:03:07;;;;;;;5.15;2.30;;;25.50;95.60;;;;;;4978738;28;20223;-72
2021/07/02 13:05:36;;;;;;;3.55;2.25;;;25.30;95.50;;;;;;4974102;28;20207;-73
2021/07/02 13:08:04;;;;;;;4.68;2.53;;;25.40;95.60;;;;;;4990293;28;20226;-72
2021/07/02 13:10:35;;;;;;;5.20;2.25;;;25.50;93.90;;;;;;4979897;28;20223;-72
2021/07/02 13:13:16;;;;;;;5.40;2.40;;;25.50;94.40;;;;;;4988521;28;20701;-72
2021/07/02 13:16:05;;;;;;;3.10;2.17;;;25.50;94.90;;;;;;4996377;28;20296;-72
2021/07/02 13:18:33;;;;;;;4.20;2.38;;;25.40;94.00;;;;;;4996395;28;20576;-72
2021/07/02 13:21:01;;;;;;;4.63;2.40;;;25.50;93.80;;;;;;4996543;28;20202;-72
2021/07/02 13:23:30;;;;;;;3.70;2.03;;;25.80;95.00;;;;;;4980124;28;20234;-72
2021/07/02 13:26:13;;;;;;;4.93;2.15;;;25.80;94.80;;;;;;4976963;28;20571;-71
2021/07/02 13:28:42;;;;;;;5.47;2.08;;;25.80;93.70;;;;;;4977782;28;20784;-72
2021/07/02 13:31:19;;;;;;;4.00;2.08;;;25.90;94.70;;;;;;4976912;28;20234;-72
2021/07/02 13:34:02;;;;;;;3.25;1.73;;;25.80;95.00;;;;;;4977023;28;20206;-72
2021/07/02 13:36:34;;;;;;;4.38;2.20;;;25.90;95.80;;;;;;4976729;28;20749;-72
2021/07/02 13:39:01;;;;;;;3.83;1.70;;;26.10;96.00;;;;;;4981485;28;20199;-72
2021/07/02 13:41:29;;;;;;;4.05;2.45;;;26.20;95.60;;;;;;4979056;28;20271;-72
2021/07/02 13:43:57;;;;;;;4.25;1.77;;;26.30;94.40;;;;;;4976341;28;20695;-72
2021/07/02 13:46:28;;;;;;;3.33;2.03;;;26.40;94.60;;;;;;4977746;28;20594;-72
2021/07/02 13:48:55;;;;;;;4.15;2.00;;;26.50;95.00;;;;;;4985044;28;20257;-72
2021/07/02 13:51:21;;;;;;;6.55;2.72;;;26.40;93.30;;;;;;4987973;28;20214;-72
2021/07/02 13:53:48;;;;;;;7.93;2.22;;;26.50;94.70;;;;;;4989740;28;20205;-72
2021/07/02 13:56:15;;;;;;;4.15;2.28;;;26.60;94.40;;;;;;4995389;28;20222;-73
2021/07/02 13:58:43;;;;;;;4.85;2.20;;;26.50;92.30;;;;;;4995275;28;20211;-72
2021/07/02 14:01:10;;;;;;;4.55;2.17;;;26.50;92.70;;;;;;4995731;28;20569;-71
2021/07/02 14:03:37;;;;;;;2.75;2.00;;;26.50;93.20;;;;;;4978082;28;20226;-73
2021/07/02 14:06:04;;;;;;;5.43;2.47;;;26.60;93.10;;;;;;4976518;28;20212;-72
2021/07/02 14:08:31;;;;;;;14.02;2.72;;;26.40;93.40;;;;;;4976340;28;20298;-72
2021/07/02 14:10:57;;;;;;;4.25;2.40;;;26.20;94.20;;;;;;4975849;28;20204;-72
2021/07/02 14:13:24;;;;;;;4.97;2.22;;;26.20;93.00;;;;;;4976265;28;20223;-73
2021/07/02 14:15:52;;;;;;;3.03;2.13;;;26.20;92.10;;;;;;4976159;28;20214;-72
2021/07/02 14:18:19;;;;;;;5.97;2.20;;;26.00;94.60;;;;;;4976109;28;20214;-72
2021/07/02 14:20:46;;;;;;;6.45;3.10;;;26.20;93.70;;;;;;4975863;28;20231;-72
2021/07/02 14:23:12;;;;;;;3.92;2.17;;;26.20;93.40;;;;;;4974011;28;20223;-73
2021/07/02 14:25:39;;;;;;;3.80;2.25;;;26.40;92.40;;;;;;4993094;28;20206;-74
2021/07/02 14:28:06;;;;;;;5.28;2.78;;;26.60;92.30;;;;;;4995276;28;20238;-77
2021/07/02 14:30:33;;;;;;;4.85;2.67;;;26.60;93.90;;;;;;4995113;28;20579;-76
2021/07/02 14:33:01;;;;;;;5.40;3.03;;;26.60;94.80;;;;;;4995043;28;20230;-74
2021/07/02 14:35:28;;;;;;;6.13;2.67;;;26.70;93.30;;;;;;4994868;28;20215;-73
2021/07/02 14:37:55;;;;;;;8.30;2.95;;;26.50;93.60;;;;;;4994719;28;20202;-72
2021/07/02 14:40:21;;;;;;;7.53;2.90;;;26.30;94.00;;;;;;4994635;28;20214;-72
2021/07/02 14:42:48;;;;;;;5.10;2.50;;;26.40;94.40;;;;;;4994461;28;20222;-72
2021/07/02 14:45:15;;;;;;;5.80;2.25;;;26.40;93.80;;;;;;4994346;28;20213;-73
2021/07/02 14:47:42;;;;;;;4.30;2.30;;;26.40;92.70;;;;;;4994508;28;20234;-74
2021/07/02 14:50:11;;;;;;;3.55;2.17;;;26.20;93.50;;;;;;4994659;28;20203;-72
2021/07/02 14:52:38;;;;;;;4.00;2.00;;;26.30;93.50;;;;;;4994486;28;20249;-72
2021/07/02 14:55:06;;;;;;;6.78;2.67;;;26.20;93.40;;;;;;4995626;28;20210;-73
2021/07/02 14:57:33;;;;;;;4.78;2.10;;;26.20;94.20;;;;;;4994694;28;20224;-73
2021/07/02 15:00:00;;;;;;;4.43;2.25;;;26.40;94.00;;;;;;4994517;28;20210;-73
2021/07/02 15:02:26;;;;;;;3.00;2.10;;;26.60;93.50;;;;;;4994486;28;20222;-72
2021/07/02 15:04:53;;;;;;;6.60;2.47;;;26.80;92.90;;;;;;4993974;28;20203;-76
2021/07/02 15:07:25;;;;;;;3.38;2.08;;;26.70;93.30;;;;;;4994208;28;20220;-72
2021/07/02 15:09:53;;;;;;;4.40;2.28;;;26.60;93.30;;;;;;4994188;28;20653;-71
2021/07/02 15:12:20;;;;;;;3.63;2.20;;;26.60;92.40;;;;;;4994262;28;20231;-74
2021/07/02 15:14:47;;;;;;;4.60;2.58;;;26.40;93.50;;;;;;4994034;28;20677;-72
2021/07/02 15:17:14;;;;;;;5.15;2.15;;;26.30;92.50;;;;;;4994424;28;20206;-73
2021/07/02 15:19:41;;;;;;;3.47;2.20;;;26.30;91.70;;;;;;4993929;28;20293;-73
2021/07/02 15:22:08;;;;;;;5.88;2.15;;;26.30;91.90;;;;;;4994111;28;20227;-72
2021/07/02 15:24:36;;;;;;;3.83;2.20;;;26.10;94.10;;;;;;4993870;28;20207;-73
2021/07/02 15:27:03;;;;;;;4.32;2.30;;;26.00;92.90;;;;;;4993969;28;20211;-72
2021/07/02 15:29:31;;;;;;;4.78;2.58;;;25.70;93.10;;;;;;4993967;28;20692;-73
2021/07/02 15:32:29;;;;;;;3.28;2.42;;;25.60;92.90;;;;;;4994153;28;20230;-72
2021/07/02 15:34:56;;;;;;;3.38;1.90;;;25.50;92.60;;;;;;4993907;28;20213;-73
2021/07/02 15:37:23;;;;;;;3.63;2.42;;;25.60;93.20;;;;;;4992822;28;20206;-78
2021/07/02 15:39:51;;;;;;;3.55;1.83;;;25.70;94.10;;;;;;4993733;28;20210;-77
2021/07/02 15:42:19;;;;;;;3.70;2.28;;;25.70;93.50;;;;;;4993531;28;20317;-72
2021/07/02 15:44:46;;;;;;;4.10;2.35;;;25.90;93.60;;;;;;4993433;28;20257;-71
2021/07/02 15:47:13;;;;;;;3.35;2.20;;;25.90;92.60;;;;;;4993839;28;20202;-75
2021/07/02 15:49:40;;;;;;;4.05;2.40;;;26.00;93.60;;;;;;4989370;28;20726;-71
2021/07/02 15:52:07;;;;;;;4.10;2.33;;;26.10;92.90;;;;;;4992607;28;20232;-72
2021/07/02 15:54:34;;;;;;;3.85;2.17;;;26.10;93.80;;;;;;4993063;28;20202;-74
2021/07/02 15:57:03;;;;;;;4.70;2.58;;;26.00;92.70;;;;;;4991714;28;20225;-72
2021/07/02 15:59:30;;;;;;;3.88;2.50;;;25.80;93.30;;;;;;4992111;28;20680;-73
2021/07/02 16:01:57;;;;;;;3.88;2.13;;;25.70;93.80;;;;;;4992548;28;20230;-72
2021/07/02 16:04:24;;;;;;;3.67;2.42;;;25.80;93.40;;;;;;4992348;28;20207;-72
2021/07/02 16:06:51;;;;;;;3.15;2.10;;;25.70;93.30;;;;;;4992696;28;20198;-72
2021/07/02 16:09:18;;;;;;;3.40;2.28;;;25.70;92.90;;;;;;4992243;28;20230;-72
2021/07/02 16:11:45;;;;;;;5.43;2.15;;;25.50;94.10;;;;;;4991545;28;20728;-73
2021/07/02 16:14:14;;;;;;;3.47;2.35;;;25.50;93.70;;;;;;4992489;28;20214;-73
2021/07/02 16:16:40;;;;;;;3.55;2.42;;;25.50;93.70;;;;;;4992241;28;20210;-73
2021/07/02 16:19:07;;;;;;;4.45;2.25;;;25.60;93.50;;;;;;4991220;28;20203;-72
2021/07/02 16:21:34;;;;;;;4.15;2.20;;;25.70;94.30;;;;;;4991969;28;20214;-73
2021/07/02 16:24:01;;;;;;;5.65;2.50;;;25.80;93.70;;;;;;4991920;28;20210;-73
2021/07/02 16:26:28;;;;;;;4.07;2.50;;;25.80;92.90;;;;;;4991521;28;20554;-72
2021/07/02 16:28:56;;;;;;;4.75;2.70;;;25.90;92.20;;;;;;4992457;28;20226;-72
2021/07/02 16:31:24;;;;;;;4.35;2.47;;;26.00;92.40;;;;;;4992384;28;20206;-72
2021/07/02 16:33:51;;;;;;;4.55;2.67;;;25.90;93.00;;;;;;4992189;28;20285;-73
2021/07/02 16:36:18;;;;;;;5.32;2.80;;;25.90;93.00;;;;;;4992474;28;20234;-73
2021/07/02 16:38:45;;;;;;;3.10;2.30;;;25.90;92.90;;;;;;4991847;28;20217;-72
2021/07/02 16:41:13;;;;;;;2.90;2.17;;;25.80;92.80;;;;;;4991606;28;20217;-73
2021/07/02 16:43:41;;;;;;;3.78;2.45;;;25.80;93.20;;;;;;4991823;28;20237;-73
2021/07/02 16:46:08;;;;;;;3.10;2.00;;;26.00;93.00;;;;;;4991958;28;20257;-73
2021/07/02 16:48:36;;;;;;;4.10;2.20;;;26.00;93.50;;;;;;4992614;28;20241;-72
2021/07/02 16:51:03;;;;;;;3.97;2.17;;;26.20;93.00;;;;;;4996082;28;20211;-73
2021/07/02 16:53:30;;;;;;;3.97;2.20;;;26.20;93.50;;;;;;4994740;28;20226;-73
2021/07/02 16:55:57;;;;;;;3.25;2.17;;;26.10;92.80;;;;;;4994474;28;20226;-73
2021/07/02 16:58:24;;;;;;;4.22;1.92;;;26.00;93.70;;;;;;4995231;28;20210;-72
2021/07/02 17:00:51;;;;;;;4.28;1.92;;;25.80;93.50;;;;;;4995450;28;20218;-73
2021/07/02 17:03:17;;;;;;;5.55;2.03;;;25.70;93.50;;;;;;4995222;28;20228;-72
2021/07/02 17:05:46;;;;;;;3.75;2.17;;;25.70;94.20;;;;;;4995680;28;20206;-73
2021/07/02 17:08:13;;;;;;;6.80;2.28;;;25.70;93.80;;;;;;4995436;28;20238;-72
2021/07/02 17:10:40;;;;;;;3.63;2.00;;;25.60;94.10;;;;;;4995178;28;20215;-73
2021/07/02 17:13:07;;;;;;;3.65;2.50;;;25.60;94.60;;;;;;4995337;28;20234;-72
2021/07/02 17:15:34;;;;;;;3.03;2.05;;;25.60;93.80;;;;;;4995435;28;20213;-73
2021/07/02 17:18:00;;;;;;;3.78;2.25;;;25.70;93.20;;;;;;4994639;28;20670;-73
2021/07/02 17:20:27;;;;;;;2.72;2.08;;;25.70;93.90;;;;;;4994548;28;20665;-72
2021/07/02 17:22:55;;;;;;;3.88;2.13;;;25.70;93.70;;;;;;4995514;28;20226;-72
2021/07/02 17:25:23;;;;;;;2.75;2.15;;;25.60;94.90;;;;;;4995165;28;20257;-71
2021/07/02 17:27:50;;;;;;;3.83;2.17;;;25.40;95.50;;;;;;4995200;28;20210;-71
2021/07/02 17:30:17;;;;;;;3.28;2.00;;;25.40;95.60;;;;;;4994942;28;20214;-73
2021/07/02 17:32:46;;;;;;;5.13;2.22;;;25.30;96.00;;;;;;4994315;28;20226;-73
2021/07/02 17:35:14;;;;;;;4.15;1.95;;;25.30;95.50;;;;;;4994702;28;20728;-72
2021/07/02 17:37:41;;;;;;;2.95;2.10;;;25.40;94.80;;;;;;4995105;28;20212;-72
2021/07/02 17:40:12;;;;;;;4.28;2.20;;;25.30;94.30;;;;;;4994218;28;20218;-72
2021/07/02 17:42:42;;;;;;;5.10;2.30;;;25.20;95.00;;;;;;4994800;28;20237;-72
2021/07/02 17:45:09;;;;;;;3.60;2.30;;;25.20;96.20;;;;;;4994962;28;20569;-72
2021/07/02 17:47:37;;;;;;;2.78;1.98;;;25.00;96.50;;;;;;4994497;28;20214;-72
2021/07/02 17:50:05;;;;;;;6.13;2.33;;;24.90;97.00;;;;;;4994637;28;20727;-72
2021/07/02 17:52:31;;;;;;;4.93;2.15;;;24.70;97.50;;;;;;4995116;28;20234;-72
2021/07/02 17:54:58;;;;;;;2.70;1.77;;;24.70;98.20;;;;;;4995909;28;20202;-72
2021/07/02 17:57:26;;;;;;;3.35;2.13;;;24.60;98.10;;;;;;4995381;28;20665;-73
2021/07/02 17:59:54;;;;;;;3.58;2.10;;;24.60;97.30;;;;;;4994719;28;20214;-72
2021/07/02 18:02:20;;;;;;;3.78;2.05;;;24.70;98.00;;;;;;4995485;28;20763;-72
2021/07/02 18:04:47;;;;;;;4.28;2.45;;;24.80;98.10;;;;;;4996036;28;20210;-73
2021/07/02 18:07:14;;;;;;;3.75;2.35;;;24.90;97.30;;;;;;4995851;28;20221;-71
2021/07/02 18:09:41;;;;;;;6.40;2.40;;;25.10;96.30;;;;;;4995547;28;20241;-72
2021/07/02 18:12:08;;;;;;;3.75;2.40;;;25.20;96.10;;;;;;4995292;28;20252;-72
2021/07/02 18:14:36;;;;;;;7.00;2.30;;;25.20;96.80;;;;;;4995281;28;20209;-72
2021/07/02 18:17:03;;;;;;;2.92;2.20;;;25.20;96.90;;;;;;4995499;28;20672;-72
2021/07/02 18:19:30;;;;;;;2.95;2.22;;;25.00;95.90;;;;;;4995604;28;20206;-72
2021/07/02 18:21:59;;;;;;;4.10;2.00;;;24.80;96.50;;;;;;4995623;28;20436;-72
2021/07/02 18:24:26;;;;;;;3.10;2.10;;;24.80;96.80;;;;;;4995622;28;20211;-72
2021/07/02 18:26:53;;;;;;;5.57;2.80;;;24.70;96.20;;;;;;4995100;28;20683;-73
2021/07/02 18:29:20;;;;;;;5.78;2.70;;;24.60;96.10;;;;;;4994820;28;20735;-71
2021/07/02 18:31:48;;;;;;;3.78;2.40;;;24.70;96.00;;;;;;4995266;28;20236;-71
2021/07/02 18:34:15;;;;;;;3.45;2.30;;;24.80;96.20;;;;;;4995289;28;20206;-72
2021/07/02 18:36:42;;;;;;;4.50;2.38;;;24.60;97.50;;;;;;4995114;28;20206;-72
2021/07/02 18:39:09;;;;;;;4.20;2.50;;;24.50;97.70;;;;;;4995095;28;20215;-72
2021/07/02 18:41:36;;;;;;;4.68;2.70;;;24.40;99.00;;;;;;4994914;28;20210;-72
2021/07/02 18:44:04;;;;;;;4.18;2.70;;;24.10;98.10;;;;;;4994928;28;20210;-72
2021/07/02 18:46:31;;;;;;;3.80;2.72;;;23.90;97.30;;;;;;4994935;28;20661;-72
2021/07/02 18:48:59;;;;;;;4.22;2.97;;;23.70;98.60;;;;;;4994972;28;20241;-71
2021/07/02 18:51:26;;;;;;;4.30;2.60;;;23.80;99.20;;;;;;4994882;28;20210;-72
2021/07/02 18:53:52;;;;;;;5.50;2.80;;;23.90;99.00;;;;;;4994929;28;20203;-73
2021/07/02 18:56:19;;;;;;;4.85;2.88;;;23.90;98.80;;;;;;4994560;28;20213;-72
2021/07/02 18:58:46;;;;;;;4.57;3.00;;;23.80;99.10;;;;;;4994922;28;20206;-74
2021/07/02 19:01:13;;;;;;;6.47;3.05;;;23.80;98.80;;;;;;4994719;28;20212;-72
2021/07/02 19:03:39;;;;;;;4.65;2.95;;;23.70;98.90;;;;;;4994750;28;20236;-72
2021/07/02 19:06:08;;;;;;;6.40;2.85;;;23.60;99.10;;;;;;4994713;28;20237;-72
2021/07/02 19:08:34;;;;;;;3.75;2.58;;;23.50;99.90;;;;;;4994273;28;20206;-72
2021/07/02 19:11:01;;;;;;;8.93;3.47;;;23.40;99.90;;;;;;4994130;28;20210;-72
2021/07/02 19:13:28;;;;;;;7.18;2.85;;;23.20;99.90;;;;;;4994705;28;20240;-72
2021/07/02 19:15:55;;;;;;;5.78;3.03;;;23.10;99.90;;;;;;4994370;28;20222;-72
2021/07/02 19:18:22;;;;;;;4.88;2.70;;;23.00;99.90;;;;;;4994369;28;20208;-73
2021/07/02 19:20:48;;;;;;;5.75;2.60;;;22.80;99.90;;;;;;4994342;28;20218;-72
2021/07/02 19:23:16;;;;;;;5.28;3.42;;;22.80;99.90;;;;;;4994226;28;20226;-72
2021/07/02 19:25:44;;;;;;;3.55;2.95;;;22.70;99.90;;;;;;4994097;28;20565;-72
2021/07/02 19:28:12;;;;;;;6.93;3.10;;;22.70;99.90;;;;;;4994329;28;20218;-72
2021/07/02 19:30:39;;;;;;;4.10;2.85;;;22.60;99.90;;;;;;4994330;28;20245;-72
2021/07/02 19:33:06;;;;;;;7.10;3.25;;;22.40;99.90;;;;;;4993980;28;20226;-72
2021/07/02 19:35:32;;;;;;;4.57;2.90;;;22.20;99.90;;;;;;4994200;28;20576;-72
2021/07/02 19:37:59;;;;;;;5.50;2.97;;;22.20;99.90;;;;;;4993984;28;20210;-72
2021/07/02 19:40:27;;;;;;;3.47;2.63;;;22.00;99.90;;;;;;4994224;28;20210;-73
2021/07/02 19:42:55;;;;;;;4.38;3.05;;;21.90;99.90;;;;;;4993990;28;20589;-73
2021/07/02 19:45:22;;;;;;;5.88;3.25;;;21.80;99.90;;;;;;4994009;28;20210;-73
2021/07/02 19:47:50;;;;;;;6.15;3.10;;;21.70;99.90;;;;;;4994266;28;20217;-71
2021/07/02 19:50:17;;;;;;;4.30;2.95;;;21.60;99.90;;;;;;4993701;28;20240;-72
2021/07/02 19:52:44;;;;;;;4.40;3.22;;;21.50;99.90;;;;;;4993578;28;20237;-72
2021/07/02 19:55:12;;;;;;;4.90;2.95;;;21.40;99.90;;;;;;4993716;28;20565;-72
2021/07/02 19:57:40;;;;;;;3.47;2.60;;;21.20;99.90;;;;;;4993560;28;20225;-72
2021/07/02 20:00:09;;;;;;;4.30;3.03;;;21.00;99.90;;;;;;4993858;28;20725;-73
2021/07/02 20:02:37;;;;;;;5.18;3.08;;;21.00;99.90;;;;;;4993599;28;20226;-71
2021/07/02 20:05:04;;;;;;;6.25;3.40;;;21.00;99.90;;;;;;4993617;28;20229;-72
2021/07/02 20:07:31;;;;;;;5.43;3.20;;;20.90;99.90;;;;;;4993563;28;20206;-71
2021/07/02 20:09:58;;;;;;;6.30;3.15;;;20.80;99.90;;;;;;4993845;28;20234;-72
2021/07/02 20:12:25;;;;;;;7.57;2.97;;;20.80;99.90;;;;;;4993420;28;20226;-72
2021/07/02 20:14:53;;;;;;;4.82;3.42;;;20.70;99.90;;;;;;4993676;28;20210;-72
2021/07/02 20:17:20;;;;;;;7.68;3.08;;;20.60;99.90;;;;;;4993485;28;20303;-72
2021/07/02 20:19:47;;;;;;;5.97;3.47;;;20.50;99.90;;;;;;4993635;28;20654;-73
2021/07/02 20:22:14;;;;;;;6.10;3.45;;;20.30;99.90;;;;;;4993602;28;20253;-72
2021/07/02 20:24:41;;;;;;;4.70;3.42;;;20.20;99.90;;;;;;4996680;28;20214;-72
2021/07/02 20:27:08;;;;;;;7.80;3.72;;;20.20;99.90;;;;;;4997213;28;20289;-72
2021/07/02 20:29:35;;;;;;;5.22;3.55;;;20.10;99.90;;;;;;4997505;28;20230;-72
2021/07/02 20:32:04;;;;;;;5.95;3.40;;;20.00;99.90;;;;;;4997149;28;20232;-73
2021/07/02 20:34:30;;;;;;;6.50;3.08;;;19.90;99.90;;;;;;4997138;28;20210;-72
2021/07/02 20:36:57;;;;;;;6.05;3.63;;;19.90;99.90;;;;;;4997457;28;20657;-73
2021/07/02 20:39:24;;;;;;;5.28;3.42;;;19.80;99.90;;;;;;4996621;28;20570;-71
2021/07/02 20:41:51;;;;;;;6.47;3.60;;;19.70;99.90;;;;;;4996286;28;20727;-71
2021/07/02 20:44:18;;;;;;;6.03;3.63;;;19.60;99.90;;;;;;4997340;28;20202;-71
2021/07/02 20:46:44;;;;;;;5.67;3.53;;;19.50;99.90;;;;;;4997226;28;20226;-71
2021/07/02 20:49:12;;;;;;;5.13;3.30;;;19.30;99.90;;;;;;4997269;28;20209;-72
2021/07/02 20:51:40;;;;;;;5.53;3.30;;;19.30;99.90;;;;;;4996936;28;20222;-71
2021/07/02 20:54:06;;;;;;;6.97;3.70;;;19.30;99.90;;;;;;4997336;28;20206;-71
2021/07/02 20:56:35;;;;;;;5.53;3.67;;;19.20;99.90;;;;;;4996727;28;20214;-72
2021/07/02 20:59:02;;;;;;;6.07;3.90;;;19.20;99.90;;;;;;4996791;28;20401;-71
2021/07/02 21:01:29;;;;;;;7.20;3.70;;;19.10;99.90;;;;;;4996594;28;20207;-71
2021/07/02 21:03:55;;;;;;;8.43;3.90;;;19.10;99.90;;;;;;4996792;28;20206;-73
2021/07/02 21:06:24;;;;;;;7.90;3.93;;;19.10;99.90;;;;;;4997054;28;20210;-71
2021/07/02 21:08:50;;;;;;;4.97;3.73;;;19.10;99.90;;;;;;4997036;28;20210;-71
2021/07/02 21:11:17;;;;;;;6.63;4.47;;;19.10;99.90;;;;;;4996412;28;20596;-71
2021/07/02 21:13:44;;;;;;;5.40;3.83;;;18.90;99.90;;;;;;4996493;28;20226;-73
2021/07/02 21:16:11;;;;;;;6.87;4.00;;;18.90;99.90;;;;;;4996597;28;20677;-71
2021/07/02 21:18:38;;;;;;;6.13;3.70;;;18.90;99.90;;;;;;4993246;28;20213;-77
2021/07/02 21:21:05;;;;;;;6.87;4.43;;;18.90;99.90;;;;;;4994762;28;20220;-80
2021/07/02 21:23:33;;;;;;;8.63;4.40;;;18.80;99.90;;;;;;4995201;28;20570;-77
2021/07/02 21:26:00;;;;;;;12.23;4.30;;;18.80;99.90;;;;;;4994582;28;20301;-77
2021/07/02 21:28:27;;;;;;;7.50;4.10;;;18.70;99.90;;;;;;4994659;28;20202;-77
2021/07/02 21:30:54;;;;;;;9.53;5.13;;;18.80;99.90;;;;;;4995409;28;20234;-75
2021/07/02 21:33:21;;;;;;;9.10;4.50;;;18.80;99.90;;;;;;4994457;28;20345;-78
2021/07/02 21:35:48;;;;;;;7.10;4.40;;;18.70;99.90;;;;;;4993514;28;20213;-76
2021/07/02 21:38:15;;;;;;;6.83;4.27;;;18.70;99.90;;;;;;4994659;28;20232;-76
2021/07/02 21:40:43;;;;;;;8.40;4.63;;;18.50;99.90;;;;;;4994172;28;20641;-76
2021/07/02 21:43:10;;;;;;;8.93;4.87;;;18.40;99.90;;;;;;4994406;28;20313;-76
2021/07/02 21:45:37;;;;;;;11.20;5.33;;;18.40;99.90;;;;;;4995087;28;20297;-76
2021/07/02 21:48:04;;;;;;;8.73;4.70;;;18.40;99.90;;;;;;4993560;28;20573;-74
2021/07/02 21:50:31;;;;;;;9.70;4.97;;;18.40;99.90;;;;;;4994602;28;20245;-76
2021/07/02 21:52:59;;;;;;;7.90;4.80;;;18.30;99.90;;;;;;4995775;28;20230;-75
2021/07/02 21:55:26;;;;;;;9.73;4.73;;;18.30;99.90;;;;;;4996627;28;20206;-75
2021/07/02 21:57:54;;;;;;;8.23;4.60;;;18.20;99.90;;;;;;4995823;28;20213;-74
2021/07/02 22:00:21;;;;;;;10.80;4.87;;;18.20;99.90;;;;;;4995988;28;20213;-76
2021/07/02 22:02:48;;;;;;;7.67;4.73;;;18.20;99.90;;;;;;4995751;28;20230;-75
2021/07/02 22:05:15;;;;;;;8.07;4.40;;;18.10;99.90;;;;;;4995697;28;20226;-75
2021/07/02 22:07:42;;;;;;;8.70;4.43;;;18.10;99.90;;;;;;4995768;28;20210;-75
2021/07/02 22:10:10;;;;;;;8.70;4.37;;;18.00;99.90;;;;;;4995544;28;20234;-75
2021/07/02 22:12:37;;;;;;;8.00;3.77;;;18.00;99.90;;;;;;4995324;28;20226;-75
2021/07/02 22:15:08;;;;;;;7.37;4.33;;;17.90;99.90;;;;;;4995436;28;20573;-75
2021/07/02 22:17:35;;;;;;;6.17;3.97;;;17.90;99.90;;;;;;4995685;28;20206;-74
2021/07/02 22:20:02;;;;;;;6.87;4.23;;;17.90;99.90;;;;;;4995740;28;20216;-75
2021/07/02 22:22:28;;;;;;;5.87;4.13;;;18.00;99.90;;;;;;4996574;28;20236;-75
2021/07/02 22:24:55;;;;;;;9.23;4.13;;;17.90;99.90;;;;;;4995474;28;20213;-74
2021/07/02 22:27:22;;;;;;;9.53;4.17;;;17.80;99.90;;;;;;4995537;28;20217;-75
2021/07/02 22:29:49;;;;;;;5.77;3.77;;;17.70;99.90;;;;;;4995554;28;20234;-75
2021/07/02 22:32:17;;;;;;;7.03;3.90;;;17.70;99.90;;;;;;4995588;28;20233;-75
2021/07/02 22:34:43;;;;;;;5.40;3.97;;;17.70;99.90;;;;;;4995452;28;20202;-75
2021/07/02 22:37:10;;;;;;;4.83;3.07;;;17.70;99.90;;;;;;4995142;28;20210;-75
2021/07/02 22:39:37;;;;;;;6.83;3.70;;;17.80;99.90;;;;;;4995330;28;20596;-74
